KPLR/PLR METAR and TAF weather

Enter ICAO airport designator
Station Type Date Time Source
KPLR METAR 2019/11/14 04:15 UTC NOAA

KPLR 140415Z AUTO 00000KT 10SM M01/M01 A3031 RMK A01


Station Type Date Time Source
KPLR Decoded METAR 2019/11/14 04:15 UTC NOAA

Station name not available
Nov 13, 2019 - 11:15 PM EST / 2019.11.14 0415 UTC
Wind: Calm:0
Visibility: 10 mile(s):0
Temperature: 30 F (-1 C)
Dew Point: 30 F (-1 C)
Relative Humidity: 100%
Pressure (altimeter): 30.31 in. Hg (1026 hPa)
ob: KPLR 140415Z AUTO 00000KT 10SM M01/M01 A3031 RMK A01
cycle: 4

Station Type Date Time Source
KPLR TAF UTC NOAA

Error!

Example: see airport list